Time;durP1;ratioP1;P1;durP2;ratioP2;P2;SDS_P1;SDS_P2;PMS_P1;PMS_P2;Temp;Humidity;BMP_temperature;BMP_pressure;BME280_temperature;BME280_humidity;BME280_pressure;Samples;Min_cycle;Max_cycle;Signal;HPM_P1;HPM_P2
2023/02/24 00:01:17;;;;;;;0.90;0.70;;;5.00;91.30;;;;;;5113438;28;20088;-67
2023/02/24 00:03:43;;;;;;;2.28;0.80;;;5.00;91.40;;;;;;5106329;28;20023;-67
2023/02/24 00:06:12;;;;;;;0.90;0.80;;;5.00;91.30;;;;;;5106790;28;20024;-66
2023/02/24 00:08:39;;;;;;;0.80;0.80;;;4.90;91.40;;;;;;5100609;28;20024;-66
2023/02/24 00:11:09;;;;;;;1.17;0.70;;;4.90;91.30;;;;;;5112698;28;20035;-67
2023/02/24 00:13:35;;;;;;;0.80;0.70;;;4.90;91.30;;;;;;5107423;27;20410;-66
2023/02/24 00:16:03;;;;;;;2.05;0.73;;;5.00;91.30;;;;;;5105305;28;20032;-66
2023/02/24 00:18:31;;;;;;;1.65;0.80;;;4.90;91.20;;;;;;5106444;28;20092;-66
2023/02/24 00:21:02;;;;;;;0.80;0.80;;;4.90;91.20;;;;;;5112901;27;20031;-67
2023/02/24 00:23:28;;;;;;;0.80;0.80;;;4.90;91.10;;;;;;5111494;28;20100;-66
2023/02/24 00:25:59;;;;;;;0.90;0.90;;;4.90;91.10;;;;;;5111252;27;20054;-66
2023/02/24 00:28:25;;;;;;;1.60;1.08;;;4.80;91.10;;;;;;5110258;27;20012;-67
2023/02/24 00:30:50;;;;;;;2.10;1.00;;;4.80;91.10;;;;;;5110880;27;20015;-67
2023/02/24 00:33:21;;;;;;;1.02;0.95;;;4.80;91.10;;;;;;5117041;27;20021;-67
2023/02/24 00:35:46;;;;;;;0.90;0.90;;;4.80;91.10;;;;;;5107555;27;20494;-66
2023/02/24 00:38:12;;;;;;;2.67;0.70;;;4.80;91.00;;;;;;5104470;28;20024;-66
2023/02/24 00:40:39;;;;;;;0.82;0.73;;;4.80;91.10;;;;;;5106254;27;20077;-66
2023/02/24 00:43:07;;;;;;;1.52;0.80;;;4.70;91.10;;;;;;5118759;27;20149;-66
2023/02/24 00:45:36;;;;;;;0.70;0.70;;;4.70;91.00;;;;;;5103826;28;20410;-66
2023/02/24 00:48:03;;;;;;;3.35;1.05;;;4.70;91.00;;;;;;5097775;28;20058;-66
2023/02/24 00:50:30;;;;;;;1.30;0.80;;;4.70;91.30;;;;;;5100000;27;20023;-67
2023/02/24 00:52:56;;;;;;;1.88;0.73;;;4.70;90.90;;;;;;5101691;28;20028;-66
2023/02/24 00:55:22;;;;;;;1.23;0.90;;;4.70;90.90;;;;;;5106794;27;20550;-66
2023/02/24 00:57:51;;;;;;;1.65;0.90;;;4.60;90.90;;;;;;5107111;27;20031;-66
2023/02/24 01:00:18;;;;;;;2.25;1.10;;;4.70;90.90;;;;;;5121872;27;20121;-66
2023/02/24 01:02:45;;;;;;;1.08;0.90;;;4.60;90.90;;;;;;5110997;27;20055;-66
2023/02/24 01:05:11;;;;;;;0.93;0.80;;;4.60;90.80;;;;;;5114645;27;20016;-66
2023/02/24 01:07:37;;;;;;;0.80;0.80;;;4.60;90.80;;;;;;5107157;27;20389;-65
2023/02/24 01:10:07;;;;;;;0.68;0.68;;;4.60;90.70;;;;;;5109179;27;20012;-65
2023/02/24 01:12:48;;;;;;;0.68;0.68;;;4.50;90.70;;;;;;5119483;27;20062;-65
2023/02/24 01:15:16;;;;;;;0.63;0.63;;;4.50;90.70;;;;;;5121388;27;20024;-65
2023/02/24 01:17:42;;;;;;;0.80;0.80;;;4.40;90.90;;;;;;5107343;27;20481;-65
2023/02/24 01:20:17;;;;;;;3.13;1.00;;;4.40;90.90;;;;;;5102367;28;20078;-66
2023/02/24 01:22:48;;;;;;;0.80;0.80;;;4.30;90.90;;;;;;5115833;27;20023;-65
2023/02/24 01:25:14;;;;;;;1.70;0.95;;;4.30;90.90;;;;;;5112958;27;20057;-66
2023/02/24 01:27:39;;;;;;;0.60;0.60;;;4.30;91.00;;;;;;5111209;27;20020;-66
2023/02/24 01:30:14;;;;;;;1.02;0.93;;;4.30;90.90;;;;;;5104373;27;20031;-66
2023/02/24 01:32:41;;;;;;;0.80;0.80;;;4.30;90.90;;;;;;5110528;27;20074;-65
2023/02/24 01:35:08;;;;;;;2.40;1.00;;;4.30;91.00;;;;;;5116441;27;20103;-65
2023/02/24 01:37:34;;;;;;;1.67;0.93;;;4.30;91.10;;;;;;5111323;28;20108;-65
2023/02/24 01:40:09;;;;;;;0.90;0.85;;;4.30;91.00;;;;;;5093865;28;20035;-66
2023/02/24 01:42:34;;;;;;;0.70;0.70;;;4.30;91.00;;;;;;5109317;27;20132;-65
2023/02/24 01:45:13;;;;;;;0.70;0.70;;;4.30;90.90;;;;;;5116075;27;20095;-65
2023/02/24 01:47:39;;;;;;;0.98;0.80;;;4.30;90.90;;;;;;5103313;28;20035;-65
2023/02/24 01:50:08;;;;;;;0.77;0.75;;;4.30;90.90;;;;;;5112385;27;20019;-65
2023/02/24 01:52:36;;;;;;;0.77;0.77;;;4.40;90.90;;;;;;5108964;27;20031;-65
2023/02/24 01:55:27;;;;;;;1.17;0.88;;;4.40;90.80;;;;;;5115290;27;20112;-65
2023/02/24 01:57:54;;;;;;;0.73;0.73;;;4.30;90.80;;;;;;5103619;27;20088;-65
2023/02/24 02:00:35;;;;;;;0.50;0.50;;;4.30;90.80;;;;;;5115721;27;20047;-65
2023/02/24 02:03:08;;;;;;;0.70;0.70;;;4.30;90.90;;;;;;5116064;27;20403;-65
2023/02/24 02:05:34;;;;;;;0.70;0.70;;;4.30;90.90;;;;;;5110246;27;20378;-65
2023/02/24 02:08:00;;;;;;;0.70;0.70;;;4.30;90.90;;;;;;5107671;28;20015;-65
2023/02/24 02:10:27;;;;;;;0.90;0.90;;;4.30;90.90;;;;;;5107468;27;20019;-65
2023/02/24 02:12:54;;;;;;;0.80;0.80;;;4.30;90.90;;;;;;5118874;27;20025;-65
2023/02/24 02:15:20;;;;;;;0.70;0.70;;;4.30;90.90;;;;;;5107472;27;20028;-65
2023/02/24 02:18:01;;;;;;;0.70;0.70;;;4.30;90.90;;;;;;5105559;28;20076;-65
2023/02/24 02:21:09;;;;;;;1.23;0.85;;;4.20;90.70;;;;;;5111410;27;20033;-66
2023/02/24 02:23:56;;;;;;;1.00;0.80;;;4.20;90.80;;;;;;5047266;28;20060;-65
2023/02/24 02:26:52;;;;;;;0.60;0.60;;;4.10;90.60;;;;;;5105153;27;20509;-65
2023/02/24 02:29:18;;;;;;;0.90;0.90;;;4.10;90.70;;;;;;5110474;27;20495;-65
2023/02/24 02:32:06;;;;;;;0.80;0.80;;;4.10;90.70;;;;;;5110456;27;20023;-65
2023/02/24 02:34:52;;;;;;;0.95;0.80;;;4.00;90.70;;;;;;5103080;27;20023;-65
2023/02/24 02:37:26;;;;;;;2.65;0.80;;;4.00;90.60;;;;;;5109473;27;20129;-65
2023/02/24 02:40:20;;;;;;;0.45;0.45;;;4.00;90.60;;;;;;5100889;27;20028;-65
2023/02/24 02:43:06;;;;;;;1.38;0.95;;;4.00;90.60;;;;;;5095962;28;20137;-64
2023/02/24 02:45:38;;;;;;;0.75;0.75;;;3.90;90.60;;;;;;5107702;28;20068;-65
2023/02/24 02:48:09;;;;;;;0.73;0.70;;;3.80;90.60;;;;;;5121287;27;20030;-65
2023/02/24 02:50:42;;;;;;;1.48;0.90;;;3.80;90.80;;;;;;5128344;27;20015;-65
2023/02/24 02:53:24;;;;;;;0.70;0.70;;;3.80;90.70;;;;;;5104495;27;20103;-65
2023/02/24 02:56:05;;;;;;;0.60;0.60;;;3.80;91.10;;;;;;5097966;28;20027;-65
2023/02/24 02:58:36;;;;;;;1.73;0.70;;;3.70;90.80;;;;;;5099130;28;20030;-64
2023/02/24 03:01:05;;;;;;;0.70;0.60;;;3.70;90.90;;;;;;5095694;28;20031;-65
2023/02/24 03:03:45;;;;;;;0.60;0.60;;;3.70;90.90;;;;;;5109512;27;20024;-65
2023/02/24 03:06:26;;;;;;;0.60;0.60;;;3.70;90.90;;;;;;5102376;27;20042;-65
2023/02/24 03:09:01;;;;;;;1.83;0.88;;;3.80;90.90;;;;;;5112688;27;20027;-65
2023/02/24 03:11:26;;;;;;;0.82;0.60;;;3.80;90.90;;;;;;5101151;27;20031;-65
2023/02/24 03:13:56;;;;;;;0.50;0.50;;;3.80;90.80;;;;;;5099338;27;20024;-65
2023/02/24 03:16:25;;;;;;;0.80;0.60;;;3.80;90.80;;;;;;5104700;27;20038;-65
2023/02/24 03:19:02;;;;;;;0.60;0.60;;;3.80;90.80;;;;;;5105230;27;20028;-65
2023/02/24 03:21:34;;;;;;;0.88;0.60;;;3.80;90.80;;;;;;5102112;28;20020;-65
2023/02/24 03:24:01;;;;;;;0.95;0.75;;;3.80;90.80;;;;;;5108042;27;20511;-65
2023/02/24 03:26:44;;;;;;;0.50;0.50;;;3.80;90.80;;;;;;5107284;27;20022;-65
2023/02/24 03:29:22;;;;;;;0.63;0.63;;;3.80;90.80;;;;;;5105378;27;20068;-65
2023/02/24 03:31:58;;;;;;;3.22;1.00;;;3.70;90.80;;;;;;5095057;28;20031;-65
2023/02/24 03:34:29;;;;;;;0.80;0.80;;;3.80;90.90;;;;;;5097094;28;20031;-65
2023/02/24 03:36:56;;;;;;;0.80;0.80;;;3.80;90.80;;;;;;5106222;28;20015;-65
2023/02/24 03:39:23;;;;;;;0.60;0.60;;;3.70;90.80;;;;;;5112389;27;20123;-65
2023/02/24 03:41:57;;;;;;;0.90;0.55;;;3.70;90.80;;;;;;5111331;28;20032;-65
2023/02/24 03:44:25;;;;;;;0.82;0.75;;;3.70;91.10;;;;;;5104495;28;20051;-65
2023/02/24 03:46:53;;;;;;;0.60;0.60;;;3.80;90.80;;;;;;5107879;28;20020;-65
2023/02/24 03:49:19;;;;;;;1.52;0.80;;;3.80;90.70;;;;;;5119461;27;20027;-65
2023/02/24 03:52:20;;;;;;;0.68;0.68;;;3.80;90.70;;;;;;5100003;27;20027;-65
2023/02/24 03:54:45;;;;;;;0.70;0.70;;;3.80;90.70;;;;;;5106459;28;20489;-65
2023/02/24 03:57:53;;;;;;;0.82;0.75;;;3.80;90.70;;;;;;5109946;27;20043;-65
2023/02/24 04:00:33;;;;;;;0.50;0.50;;;3.90;90.70;;;;;;5121614;27;20047;-65
2023/02/24 04:03:17;;;;;;;0.98;0.70;;;3.90;90.50;;;;;;5110949;27;20355;-66
2023/02/24 04:06:06;;;;;;;0.75;0.70;;;3.90;90.50;;;;;;5103424;27;20016;-65
2023/02/24 04:08:40;;;;;;;0.60;0.60;;;4.00;90.40;;;;;;5085690;28;20078;-65
2023/02/24 04:11:21;;;;;;;0.75;0.75;;;4.00;90.20;;;;;;5107133;27;20020;-65
2023/02/24 04:13:53;;;;;;;0.85;0.70;;;4.00;90.20;;;;;;5108052;28;20027;-65
2023/02/24 04:16:27;;;;;;;0.98;0.60;;;4.00;90.20;;;;;;5105497;27;20103;-65
2023/02/24 04:18:57;;;;;;;0.60;0.60;;;4.00;90.20;;;;;;5125995;27;20023;-65
2023/02/24 04:21:26;;;;;;;1.20;0.90;;;4.10;90.10;;;;;;5103510;27;20027;-66
2023/02/24 04:23:52;;;;;;;0.73;0.73;;;4.10;90.10;;;;;;5109460;28;20126;-65
2023/02/24 04:26:19;;;;;;;0.57;0.57;;;4.10;90.10;;;;;;5123726;27;20472;-65
2023/02/24 04:28:47;;;;;;;1.23;0.60;;;4.20;90.00;;;;;;5107601;27;20144;-65
2023/02/24 04:31:16;;;;;;;0.77;0.75;;;4.20;90.00;;;;;;5101014;27;20024;-65
2023/02/24 04:33:42;;;;;;;0.85;0.77;;;4.20;89.90;;;;;;5107005;28;20031;-65
2023/02/24 04:36:11;;;;;;;0.80;0.80;;;4.20;89.70;;;;;;5105487;28;20020;-65
2023/02/24 04:38:37;;;;;;;0.70;0.70;;;4.20;89.70;;;;;;5122913;27;20020;-65
2023/02/24 04:41:03;;;;;;;0.60;0.60;;;4.20;89.70;;;;;;5107847;27;20035;-65
2023/02/24 04:43:28;;;;;;;0.80;0.80;;;4.30;89.70;;;;;;5115391;27;20016;-65
2023/02/24 04:45:54;;;;;;;0.80;0.80;;;4.30;89.50;;;;;;5113629;27;20024;-64
2023/02/24 04:48:20;;;;;;;0.73;0.55;;;4.30;89.50;;;;;;5119295;27;20588;-65
2023/02/24 04:50:47;;;;;;;1.10;0.85;;;4.30;89.50;;;;;;5112410;27;20030;-65
2023/02/24 04:53:15;;;;;;;0.65;0.65;;;4.30;89.40;;;;;;5120465;27;20028;-65
2023/02/24 04:55:47;;;;;;;0.77;0.60;;;4.30;89.30;;;;;;5111198;27;20591;-65
2023/02/24 04:58:18;;;;;;;3.60;0.90;;;4.30;89.30;;;;;;5111281;28;20028;-65
2023/02/24 05:00:47;;;;;;;0.70;0.70;;;4.30;89.20;;;;;;5109262;28;20091;-64
2023/02/24 05:03:14;;;;;;;0.55;0.55;;;4.40;89.10;;;;;;5105348;28;20293;-65
2023/02/24 05:06:01;;;;;;;0.80;0.80;;;4.40;89.10;;;;;;5110336;28;20442;-65
2023/02/24 05:08:28;;;;;;;0.60;0.60;;;4.40;89.10;;;;;;5098453;27;20577;-65
2023/02/24 05:10:59;;;;;;;0.65;0.60;;;4.40;89.00;;;;;;5103095;28;20016;-65
2023/02/24 05:13:27;;;;;;;1.10;0.80;;;4.40;89.00;;;;;;5121426;27;20015;-65
2023/02/24 05:15:58;;;;;;;1.00;0.70;;;4.40;89.00;;;;;;5113380;27;20028;-64
2023/02/24 05:18:25;;;;;;;0.70;0.68;;;4.40;88.80;;;;;;5120396;27;20062;-65
2023/02/24 05:23:43;;;;;;;1.10;0.80;;;4.50;88.90;;;;;;5112924;27;20042;-65
2023/02/24 05:26:11;;;;;;;2.63;0.80;;;4.50;88.80;;;;;;5100666;28;20032;-65
2023/02/24 05:28:39;;;;;;;0.65;0.65;;;4.50;88.70;;;;;;5113732;27;20028;-64
2023/02/24 05:31:13;;;;;;;0.60;0.55;;;4.50;88.60;;;;;;5121049;27;20106;-65
2023/02/24 05:33:41;;;;;;;0.60;0.60;;;4.40;88.60;;;;;;5102333;27;20023;-65
2023/02/24 05:36:09;;;;;;;0.95;0.90;;;4.40;88.50;;;;;;5108983;27;20531;-65
2023/02/24 05:38:36;;;;;;;0.68;0.68;;;4.40;88.50;;;;;;5113424;27;20019;-65
2023/02/24 05:41:15;;;;;;;1.25;1.00;;;4.30;88.50;;;;;;5113418;27;20522;-65
2023/02/24 05:43:51;;;;;;;1.85;0.80;;;4.30;88.60;;;;;;5110700;28;20012;-65
2023/02/24 05:46:19;;;;;;;2.38;1.45;;;4.30;88.70;;;;;;5120718;27;20034;-65
2023/02/24 05:48:49;;;;;;;1.85;0.95;;;4.20;88.80;;;;;;5115967;27;20024;-65
2023/02/24 05:51:15;;;;;;;1.10;1.00;;;4.10;88.80;;;;;;5116497;27;20053;-65
2023/02/24 05:53:41;;;;;;;1.48;1.15;;;4.20;89.60;;;;;;5106866;28;20114;-65
2023/02/24 05:56:08;;;;;;;2.92;1.20;;;4.10;88.90;;;;;;5115579;27;20028;-65
2023/02/24 05:58:38;;;;;;;1.98;0.77;;;4.10;88.90;;;;;;5122397;27;20024;-65
2023/02/24 06:01:15;;;;;;;0.98;0.90;;;4.10;89.00;;;;;;5099392;28;20028;-65
2023/02/24 06:03:46;;;;;;;2.60;1.00;;;4.20;89.10;;;;;;5100317;28;20012;-65
2023/02/24 06:06:14;;;;;;;2.22;0.88;;;4.10;89.00;;;;;;5105211;28;20028;-64
2023/02/24 06:08:48;;;;;;;0.70;0.70;;;4.10;89.00;;;;;;5115367;27;20011;-65
2023/02/24 06:11:16;;;;;;;1.13;0.80;;;4.10;89.00;;;;;;5098434;27;20020;-65
2023/02/24 06:13:56;;;;;;;0.80;0.80;;;4.20;89.10;;;;;;5113053;27;20019;-65
2023/02/24 06:16:24;;;;;;;2.60;0.77;;;4.10;89.00;;;;;;5115338;27;20024;-65
2023/02/24 06:18:50;;;;;;;2.17;0.70;;;4.10;89.00;;;;;;5110233;27;20064;-64
2023/02/24 06:21:16;;;;;;;0.95;0.82;;;4.10;89.10;;;;;;5101650;27;20040;-65
2023/02/24 06:23:42;;;;;;;1.20;0.98;;;4.10;89.10;;;;;;5106006;27;20043;-65
2023/02/24 06:26:18;;;;;;;3.95;1.25;;;4.10;89.10;;;;;;5109076;27;20070;-65
2023/02/24 06:28:45;;;;;;;2.03;1.25;;;4.10;89.10;;;;;;5107628;27;20064;-65
2023/02/24 06:31:12;;;;;;;1.30;1.08;;;4.10;89.10;;;;;;5104754;27;20142;-64
2023/02/24 06:33:39;;;;;;;2.50;1.40;;;4.10;89.10;;;;;;5114413;27;20530;-63
2023/02/24 06:36:06;;;;;;;2.38;1.27;;;4.10;89.10;;;;;;5117585;27;20414;-64
2023/02/24 06:38:34;;;;;;;1.20;1.10;;;4.10;89.00;;;;;;5112445;27;20019;-64
2023/02/24 06:41:09;;;;;;;2.60;1.42;;;4.10;89.00;;;;;;5098746;27;20032;-63
2023/02/24 06:43:39;;;;;;;0.98;0.90;;;4.10;89.00;;;;;;5108963;27;20019;-63
2023/02/24 06:46:06;;;;;;;1.50;0.85;;;4.10;89.00;;;;;;5132022;27;20047;-64
2023/02/24 06:48:32;;;;;;;0.80;0.80;;;4.10;89.00;;;;;;5096189;27;20103;-64
2023/02/24 06:51:05;;;;;;;1.40;0.93;;;4.10;89.10;;;;;;5109643;27;20455;-64
2023/02/24 06:53:34;;;;;;;0.88;0.80;;;4.10;89.00;;;;;;5102028;27;20016;-64
2023/02/24 06:56:05;;;;;;;1.33;0.95;;;4.20;89.00;;;;;;5107778;27;20089;-64
2023/02/24 06:58:31;;;;;;;1.48;1.00;;;4.20;89.00;;;;;;5108528;27;20042;-64
2023/02/24 07:00:57;;;;;;;1.30;1.02;;;4.20;89.00;;;;;;5114937;27;20466;-64
2023/02/24 07:03:38;;;;;;;0.98;0.75;;;4.20;88.90;;;;;;5103081;27;20053;-64
2023/02/24 07:06:22;;;;;;;2.65;1.13;;;4.20;88.90;;;;;;5109415;27;20026;-64
2023/02/24 07:08:49;;;;;;;2.88;0.90;;;4.20;88.90;;;;;;5103569;27;20028;-64
2023/02/24 07:11:18;;;;;;;3.03;1.15;;;4.30;89.00;;;;;;5108774;28;20066;-67
2023/02/24 07:13:46;;;;;;;2.00;1.00;;;4.30;88.90;;;;;;5105316;27;20028;-67
2023/02/24 07:16:14;;;;;;;2.08;1.00;;;4.30;88.90;;;;;;5106915;27;20023;-66
2023/02/24 07:18:41;;;;;;;1.08;0.90;;;4.30;88.70;;;;;;5107335;27;20046;-66
2023/02/24 07:21:11;;;;;;;4.32;1.52;;;4.30;88.80;;;;;;5101362;28;20032;-64
2023/02/24 07:23:40;;;;;;;1.88;1.33;;;4.30;88.60;;;;;;5110306;27;20027;-63
2023/02/24 07:26:14;;;;;;;1.45;1.08;;;4.30;88.70;;;;;;5112841;27;20439;-63
2023/02/24 07:28:41;;;;;;;1.50;0.80;;;4.30;88.60;;;;;;5103041;28;20091;-63
2023/02/24 07:31:10;;;;;;;1.27;1.00;;;4.30;88.70;;;;;;5098546;28;20024;-64
2023/02/24 07:33:39;;;;;;;2.63;1.50;;;4.40;88.80;;;;;;5095892;28;20050;-64
2023/02/24 07:36:09;;;;;;;2.25;1.40;;;4.40;88.70;;;;;;5110023;28;20019;-65
2023/02/24 07:38:38;;;;;;;1.95;1.20;;;4.40;88.70;;;;;;5104324;27;20020;-65
2023/02/24 07:41:05;;;;;;;0.95;0.95;;;4.50;88.80;;;;;;5106303;28;20099;-65
2023/02/24 07:43:33;;;;;;;1.13;1.02;;;4.50;88.70;;;;;;5102632;28;20036;-65
2023/02/24 07:46:10;;;;;;;0.90;0.85;;;4.50;88.60;;;;;;5110404;28;20497;-65
2023/02/24 07:48:36;;;;;;;1.88;1.00;;;4.50;88.60;;;;;;5099221;28;20027;-65
2023/02/24 07:51:07;;;;;;;1.33;0.90;;;4.60;88.60;;;;;;5108734;28;20028;-65
2023/02/24 07:53:32;;;;;;;2.38;0.98;;;4.60;88.50;;;;;;5108623;28;20015;-64
2023/02/24 07:55:58;;;;;;;2.63;1.38;;;4.70;88.50;;;;;;5103042;27;20023;-65
2023/02/24 07:58:24;;;;;;;1.48;0.95;;;4.70;88.40;;;;;;5100622;28;20024;-64
2023/02/24 08:00:58;;;;;;;0.80;0.80;;;4.70;88.40;;;;;;5108318;28;20023;-66
2023/02/24 08:03:29;;;;;;;0.90;0.90;;;4.80;88.40;;;;;;5102454;28;20031;-65
2023/02/24 08:05:59;;;;;;;2.00;0.90;;;4.80;88.30;;;;;;5105130;28;20016;-65
2023/02/24 08:08:24;;;;;;;3.25;1.33;;;4.80;88.30;;;;;;5097443;28;20481;-65
2023/02/24 08:10:59;;;;;;;3.42;1.02;;;4.80;88.30;;;;;;5098702;28;20047;-65
2023/02/24 08:13:28;;;;;;;4.32;1.20;;;4.80;88.40;;;;;;5097346;27;20752;-65
2023/02/24 08:15:56;;;;;;;6.22;1.38;;;4.80;88.30;;;;;;5091798;28;20048;-65
2023/02/24 08:18:22;;;;;;;1.20;1.08;;;4.80;88.30;;;;;;5089209;28;20027;-64
2023/02/24 08:20:51;;;;;;;1.08;0.95;;;4.90;88.30;;;;;;5101817;28;20085;-64
2023/02/24 08:23:17;;;;;;;1.00;0.90;;;4.90;88.30;;;;;;5101746;28;20022;-64
2023/02/24 08:25:44;;;;;;;3.28;1.20;;;4.90;88.20;;;;;;5099891;28;20047;-65
2023/02/24 08:28:10;;;;;;;0.88;0.88;;;5.00;88.30;;;;;;5097177;28;20028;-65
2023/02/24 08:30:39;;;;;;;0.80;0.80;;;5.00;88.30;;;;;;5098211;28;20012;-66
2023/02/24 08:33:08;;;;;;;1.10;1.00;;;5.00;88.20;;;;;;5097298;28;20055;-66
2023/02/24 08:35:37;;;;;;;1.42;1.10;;;5.00;88.20;;;;;;5101121;27;20020;-66
2023/02/24 08:38:15;;;;;;;1.80;0.85;;;5.00;88.20;;;;;;5104755;27;20024;-66
2023/02/24 08:40:50;;;;;;;2.53;0.73;;;5.10;88.40;;;;;;5097704;28;20084;-66
2023/02/24 08:46:02;;;;;;;1.80;0.98;;;5.10;88.40;;;;;;5099779;27;20028;-65
2023/02/24 08:48:40;;;;;;;2.53;1.30;;;5.10;88.50;;;;;;5099989;27;20020;-64
2023/02/24 08:51:08;;;;;;;1.55;0.82;;;5.20;88.60;;;;;;5104961;27;20024;-65
2023/02/24 08:53:39;;;;;;;1.17;0.90;;;5.20;88.50;;;;;;5094853;27;20019;-64
2023/02/24 08:56:10;;;;;;;1.25;1.10;;;5.20;88.60;;;;;;5094276;28;20038;-65
2023/02/24 08:58:45;;;;;;;2.55;0.90;;;5.20;88.70;;;;;;5098539;27;20461;-65
2023/02/24 09:01:22;;;;;;;0.90;0.90;;;5.20;88.70;;;;;;5098128;27;20030;-65
2023/02/24 09:03:51;;;;;;;0.98;0.90;;;5.20;88.70;;;;;;5093338;28;20024;-66
2023/02/24 09:06:25;;;;;;;1.00;0.90;;;5.30;88.80;;;;;;5094495;28;20065;-66
2023/02/24 09:09:41;;;;;;;2.17;0.90;;;5.30;88.90;;;;;;5099014;28;20023;-65
2023/02/24 09:11:42;;;;;;;0.70;0.70;;;5.20;88.90;;;;;;5099236;27;20095;-66
2023/02/24 09:14:15;;;;;;;0.75;0.75;;;5.30;89.00;;;;;;5106755;27;20027;-65
2023/02/24 09:17:00;;;;;;;0.98;0.80;;;5.30;89.10;;;;;;5100593;28;20042;-65
2023/02/24 09:22:30;;;;;;;1.05;0.70;;;5.30;89.10;;;;;;5097238;28;20071;-65
2023/02/24 09:25:16;;;;;;;3.10;1.35;;;5.40;89.10;;;;;;5099786;28;20548;-65
2023/02/24 09:27:51;;;;;;;1.10;0.90;;;5.40;89.00;;;;;;5098833;27;20302;-66
2023/02/24 09:30:35;;;;;;;1.73;0.98;;;5.40;89.10;;;;;;5102282;28;20016;-66
2023/02/24 09:33:19;;;;;;;1.23;0.80;;;5.30;89.20;;;;;;5101322;28;20077;-66
2023/02/24 09:35:45;;;;;;;0.70;0.70;;;5.30;89.30;;;;;;5098716;27;20169;-65
2023/02/24 09:38:15;;;;;;;3.72;1.30;;;5.40;89.50;;;;;;5094330;28;20127;-65
2023/02/24 09:40:50;;;;;;;0.80;0.80;;;5.40;89.50;;;;;;5094836;28;20024;-65
2023/02/24 09:43:23;;;;;;;3.40;1.23;;;5.40;89.60;;;;;;5094887;28;20027;-64
2023/02/24 09:46:23;;;;;;;1.80;0.98;;;5.40;89.60;;;;;;5097050;27;20107;-65
2023/02/24 09:49:04;;;;;;;0.80;0.80;;;5.50;89.60;;;;;;5099133;27;21729;-65
2023/02/24 09:51:41;;;;;;;3.15;1.27;;;5.60;90.10;;;;;;5098499;28;20027;-66
2023/02/24 09:54:14;;;;;;;1.13;0.85;;;5.60;89.50;;;;;;5102033;28;20043;-65
2023/02/24 09:57:06;;;;;;;1.10;1.00;;;5.60;89.50;;;;;;5099060;28;20073;-65
2023/02/24 09:59:33;;;;;;;;;;;5.70;89.60;;;;;;5101328;28;20024;-66
2023/02/24 10:02:32;;;;;;;2.03;0.98;;;5.80;89.60;;;;;;5102789;28;19913;-65
2023/02/24 10:05:18;;;;;;;3.15;1.17;;;5.80;89.40;;;;;;5097936;28;20088;-66
2023/02/24 10:07:44;;;;;;;2.75;1.10;;;5.90;89.50;;;;;;5098553;28;20028;-66
2023/02/24 10:10:27;;;;;;;1.25;1.10;;;5.90;89.40;;;;;;5100220;28;20028;-65
2023/02/24 10:13:13;;;;;;;2.60;1.17;;;5.90;89.40;;;;;;5101094;28;20035;-66
2023/02/24 10:19:13;;;;;;;1.55;0.95;;;5.90;89.60;;;;;;5099786;27;20054;-67
2023/02/24 10:22:07;;;;;;;1.23;1.00;;;5.90;89.60;;;;;;5091366;28;20040;-66
2023/02/24 10:24:46;;;;;;;2.60;1.05;;;5.90;89.80;;;;;;5099987;28;20016;-67
2023/02/24 10:27:22;;;;;;;3.33;1.20;;;6.00;89.80;;;;;;5099840;28;20026;-67
2023/02/24 10:30:26;;;;;;;1.98;1.08;;;6.00;89.70;;;;;;5100835;28;20023;-68
2023/02/24 10:32:57;;;;;;;2.55;1.10;;;6.10;89.80;;;;;;5102480;27;20066;-66
2023/02/24 10:35:25;;;;;;;2.88;1.13;;;6.10;89.70;;;;;;5102634;28;20034;-66
2023/02/24 10:37:52;;;;;;;1.00;0.90;;;6.00;89.80;;;;;;5102738;28;20027;-66
2023/02/24 10:40:42;;;;;;;2.30;1.10;;;6.00;89.90;;;;;;5103376;27;20111;-66
2023/02/24 10:43:16;;;;;;;2.88;1.17;;;6.10;90.00;;;;;;5101463;27;20027;-65
2023/02/24 10:45:45;;;;;;;4.18;1.67;;;6.10;90.00;;;;;;5103181;28;20098;-66
2023/02/24 10:48:23;;;;;;;2.10;1.33;;;6.10;90.10;;;;;;5107801;27;20375;-66
2023/02/24 10:50:53;;;;;;;1.30;1.00;;;6.10;90.20;;;;;;5106073;28;20065;-66
2023/02/24 10:53:27;;;;;;;2.13;1.10;;;6.10;90.20;;;;;;5107424;27;20024;-66
2023/02/24 11:01:19;;;;;;;1.10;0.98;;;6.10;90.30;;;;;;5103755;28;20090;-66
2023/02/24 11:04:11;;;;;;;1.60;1.20;;;6.10;90.30;;;;;;5099415;28;20612;-66
2023/02/24 11:17:55;;;;;;;1.65;0.90;;;6.20;90.50;;;;;;5104864;28;20109;-66
2023/02/24 11:20:30;;;;;;;2.33;1.40;;;6.30;90.50;;;;;;5104565;28;20549;-65
2023/02/24 11:22:56;;;;;;;2.55;1.27;;;6.30;90.60;;;;;;5101045;28;20545;-66
2023/02/24 11:25:33;;;;;;;6.78;1.30;;;6.30;90.60;;;;;;5101931;28;20023;-65
2023/02/24 11:27:59;;;;;;;5.22;1.25;;;6.30;90.60;;;;;;5107612;27;20027;-66
2023/02/24 11:30:44;;;;;;;2.15;1.35;;;6.30;90.60;;;;;;5100211;28;20382;-66
2023/02/24 11:33:28;;;;;;;4.90;1.80;;;6.40;90.70;;;;;;5102987;28;20573;-66
2023/02/24 11:36:26;;;;;;;3.63;1.83;;;6.50;90.70;;;;;;5107324;27;20424;-66
2023/02/24 11:39:21;;;;;;;2.15;1.30;;;6.50;90.70;;;;;;5100720;28;20123;-66
2023/02/24 11:41:51;;;;;;;3.55;1.58;;;6.50;90.70;;;;;;5097611;28;20020;-66
2023/02/24 11:44:29;;;;;;;1.98;1.58;;;6.50;90.70;;;;;;5106252;28;20031;-66
2023/02/24 11:47:00;;;;;;;2.55;1.55;;;6.50;90.80;;;;;;5100671;28;20650;-66
2023/02/24 11:49:32;;;;;;;1.80;1.40;;;6.50;90.80;;;;;;5103669;28;20023;-66
2023/02/24 11:52:02;;;;;;;3.40;1.98;;;6.50;90.90;;;;;;5100014;28;20023;-67
2023/02/24 11:54:36;;;;;;;1.83;1.30;;;6.50;91.00;;;;;;5105256;28;20020;-67
2023/02/24 11:57:03;;;;;;;4.07;1.65;;;6.50;91.00;;;;;;5099663;28;20455;-67
2023/02/24 11:59:35;;;;;;;2.80;1.52;;;6.50;91.00;;;;;;5098194;28;20020;-66
2023/02/24 12:02:16;;;;;;;3.03;1.50;;;6.50;91.00;;;;;;5104539;28;20062;-67
2023/02/24 12:04:57;;;;;;;3.15;1.73;;;6.60;91.00;;;;;;5098054;28;20020;-66
2023/02/24 12:07:37;;;;;;;1.50;1.10;;;6.60;91.00;;;;;;5096410;28;20732;-66
2023/02/24 12:10:15;;;;;;;2.05;1.50;;;6.70;91.00;;;;;;5103999;27;20478;-66
2023/02/24 12:13:01;;;;;;;3.72;2.30;;;6.70;91.00;;;;;;5104290;27;20453;-66
2023/02/24 12:15:31;;;;;;;10.07;3.35;;;6.70;91.10;;;;;;5101488;27;20035;-67
2023/02/24 12:18:10;;;;;;;7.05;2.88;;;6.70;91.10;;;;;;5106097;27;20033;-66
2023/02/24 12:20:53;;;;;;;7.25;3.65;;;6.70;91.10;;;;;;5105420;27;20035;-67
2023/02/24 12:23:36;;;;;;;7.57;3.33;;;6.70;91.20;;;;;;5102768;27;20390;-66
2023/02/24 12:26:41;;;;;;;6.10;2.95;;;6.80;91.20;;;;;;5105548;27;20027;-67
2023/02/24 12:29:28;;;;;;;6.22;3.50;;;6.80;91.20;;;;;;5105096;27;20031;-66
2023/02/24 12:32:15;;;;;;;4.72;2.42;;;6.90;91.20;;;;;;5105437;27;20028;-66
2023/02/24 12:34:52;;;;;;;5.55;2.65;;;7.00;91.10;;;;;;5107904;27;20024;-66
2023/02/24 12:37:26;;;;;;;4.13;2.10;;;7.00;91.10;;;;;;5108616;27;20036;-66
2023/02/24 12:40:14;;;;;;;2.65;1.65;;;7.10;91.10;;;;;;5111414;27;20490;-66
2023/02/24 12:43:03;;;;;;;3.33;2.05;;;7.10;91.10;;;;;;5107296;27;20028;-65
2023/02/24 12:45:50;;;;;;;6.40;2.97;;;7.10;91.10;;;;;;5103932;27;20020;-67
2023/02/24 12:48:30;;;;;;;2.22;1.65;;;7.20;91.10;;;;;;5108703;27;20498;-66
2023/02/24 12:51:05;;;;;;;4.20;1.77;;;7.20;91.00;;;;;;5101062;27;20023;-66
2023/02/24 12:53:51;;;;;;;3.97;1.92;;;7.20;91.00;;;;;;5107499;27;20032;-66
2023/02/24 12:56:33;;;;;;;4.00;2.13;;;7.30;91.10;;;;;;5107364;27;20054;-66
2023/02/24 12:59:04;;;;;;;2.70;1.55;;;7.30;91.10;;;;;;5102480;27;20031;-67
2023/02/24 13:01:50;;;;;;;3.90;2.03;;;7.40;91.10;;;;;;5100696;28;20046;-67
2023/02/24 13:04:24;;;;;;;5.63;2.80;;;7.50;91.10;;;;;;5106623;27;20707;-66
2023/02/24 13:07:16;;;;;;;3.17;1.95;;;7.70;91.10;;;;;;5106486;27;20059;-66
2023/02/24 13:09:47;;;;;;;3.72;2.17;;;7.90;91.20;;;;;;5105911;27;20482;-65
2023/02/24 13:12:29;;;;;;;2.65;1.52;;;8.00;90.70;;;;;;5104314;27;20023;-66
2023/02/24 13:14:55;;;;;;;1.60;1.08;;;8.10;90.70;;;;;;5107597;27;20487;-66
2023/02/24 13:17:25;;;;;;;2.38;1.27;;;8.40;90.70;;;;;;5108822;27;20058;-66
2023/02/24 13:19:52;;;;;;;2.08;1.40;;;8.60;90.60;;;;;;5105737;27;20413;-65
2023/02/24 13:22:20;;;;;;;2.08;1.30;;;8.70;90.40;;;;;;5101687;27;20386;-66
2023/02/24 13:24:54;;;;;;;2.88;1.60;;;8.90;90.30;;;;;;5102989;27;20024;-66
2023/02/24 13:27:23;;;;;;;3.65;1.67;;;9.00;90.20;;;;;;5103609;28;20424;-67
2023/02/24 13:29:53;;;;;;;2.10;1.48;;;9.00;90.20;;;;;;5098622;28;20028;-66
2023/02/24 13:32:40;;;;;;;2.55;0.90;;;9.00;90.20;;;;;;5104228;28;20023;-66
2023/02/24 13:35:14;;;;;;;2.88;1.75;;;9.10;90.10;;;;;;5102828;28;20016;-65
2023/02/24 13:37:42;;;;;;;1.95;1.40;;;9.10;90.10;;;;;;5102032;28;20046;-66
2023/02/24 13:40:17;;;;;;;2.97;1.63;;;9.00;90.10;;;;;;5103282;27;20016;-66
2023/02/24 13:42:59;;;;;;;1.90;1.50;;;9.00;90.20;;;;;;5099635;28;20063;-68
2023/02/24 13:45:27;;;;;;;;;;;9.00;90.30;;;;;;5106172;27;20027;-66
2023/02/24 13:48:21;;;;;;;4.28;1.50;;;8.90;90.30;;;;;;5100455;28;19964;-66
2023/02/24 13:51:19;;;;;;;3.08;1.27;;;8.90;90.50;;;;;;5103194;28;20648;-66
2023/02/24 13:54:21;;;;;;;3.95;1.52;;;8.90;90.50;;;;;;5103299;28;20520;-67
2023/02/24 13:56:59;;;;;;;4.10;1.70;;;9.10;90.70;;;;;;5105486;28;20669;-65
2023/02/24 13:59:54;;;;;;;3.97;1.40;;;9.40;90.60;;;;;;5102488;27;20025;-67